createdAt,value
2023-04-23T00:01:59.692Z,98126.22
2023-04-23T00:04:28.884Z,98125.53
2023-04-23T00:06:55.900Z,98117.59
2023-04-23T00:09:23.891Z,98114.72
2023-04-23T00:11:50.777Z,98119.94
2023-04-23T00:14:17.562Z,98120.75
2023-04-23T00:16:44.531Z,98117.44
2023-04-23T00:19:11.392Z,98124.91
2023-04-23T00:21:38.036Z,98125.59
2023-04-23T00:24:04.919Z,98124.09
2023-04-23T00:26:31.516Z,98124.28
2023-04-23T00:28:58.251Z,98119.63
2023-04-23T00:31:27.170Z,98123.59
2023-04-23T00:33:54.156Z,98123.28
2023-04-23T00:36:20.778Z,98128.09
2023-04-23T00:38:48.101Z,98119.63
2023-04-23T00:41:15.436Z,98122.97
2023-04-23T00:43:42.116Z,98118.16
2023-04-23T00:46:09.128Z,98120.66
2023-04-23T00:48:37.154Z,98119.66
2023-04-23T00:51:06.114Z,98116.31
2023-04-23T00:53:34.037Z,98114.97
2023-04-23T00:56:04.250Z,98121.28
2023-04-23T00:58:31.938Z,98118.28
2023-04-23T01:00:59.081Z,98119.28
2023-04-23T01:03:27.376Z,98116.13
2023-04-23T01:05:54.295Z,98119.97
2023-04-23T01:08:22.856Z,98112.28
2023-04-23T01:10:49.774Z,98110.81
2023-04-23T01:13:16.933Z,98112.66
2023-04-23T01:15:45.094Z,98114.63
2023-04-23T01:18:13.302Z,98113.97
2023-04-23T01:20:39.996Z,98117.94
2023-04-23T01:23:06.947Z,98104.97
2023-04-23T01:25:33.617Z,98109.63
2023-04-23T01:28:00.344Z,98107.97
2023-04-23T01:30:27.734Z,98104.31
2023-04-23T01:32:58.002Z,98105.94
2023-04-23T01:35:25.890Z,98106.59
2023-04-23T01:37:55.120Z,98115.94
2023-04-23T01:40:21.737Z,98102.28
2023-04-23T01:42:49.310Z,98103.66
2023-04-23T01:45:19.682Z,98106.47
2023-04-23T01:47:47.736Z,98099.47
2023-04-23T01:50:14.934Z,98105.13
2023-04-23T01:52:42.173Z,98106.13
2023-04-23T01:55:09.568Z,98103.09
2023-04-23T01:57:36.461Z,98107.28
2023-04-23T02:00:08.468Z,98109.63
2023-04-23T02:02:36.261Z,98107.63
2023-04-23T02:05:07.039Z,98104.47
2023-04-23T02:07:34.890Z,98108.28
2023-04-23T02:10:02.504Z,98112.22
2023-04-23T02:12:29.088Z,98114.50
2023-04-23T02:14:55.773Z,98111.53
2023-04-23T02:17:25.321Z,98110.88
2023-04-23T02:19:52.002Z,98111.53
2023-04-23T02:22:18.725Z,98111.56
2023-04-23T02:24:47.303Z,98111.41
2023-04-23T02:27:13.990Z,98112.22
2023-04-23T02:29:41.284Z,98107.72
2023-04-23T02:32:08.617Z,98106.91
2023-04-23T02:34:35.735Z,98110.75
2023-04-23T02:37:04.972Z,98117.41
2023-04-23T02:39:32.414Z,98113.22
2023-04-23T02:41:59.370Z,98111.59
2023-04-23T02:44:26.198Z,98109.59
2023-04-23T02:46:53.249Z,98108.59
2023-04-23T02:49:20.292Z,98111.25
2023-04-23T02:51:47.393Z,98109.94
2023-04-23T02:54:14.131Z,98106.28
2023-04-23T02:56:40.997Z,98107.91
2023-04-23T02:59:08.485Z,98108.94
2023-04-23T03:01:35.121Z,98104.06
2023-04-23T03:04:02.063Z,98104.59
2023-04-23T03:06:29.030Z,98097.28
2023-04-23T03:08:56.133Z,98111.59
2023-04-23T03:11:22.875Z,98107.91
2023-04-23T03:13:49.928Z,98110.56
2023-04-23T03:16:17.052Z,98107.06
2023-04-23T03:18:43.913Z,98116.91
2023-04-23T03:21:10.619Z,98111.25
2023-04-23T03:23:37.231Z,98110.91
2023-04-23T03:26:04.223Z,98112.53
2023-04-23T03:28:31.592Z,98111.53
2023-04-23T03:30:58.360Z,98109.56
2023-04-23T03:33:25.005Z,98109.22
2023-04-23T03:35:51.683Z,98107.91
2023-04-23T03:38:18.404Z,98114.53
2023-04-23T03:40:45.343Z,98110.69
2023-04-23T03:43:12.301Z,98119.13
2023-04-23T03:45:39.012Z,98112.81
2023-04-23T03:48:05.685Z,98115.25
2023-04-23T03:50:34.539Z,98113.56
2023-04-23T03:53:01.531Z,98120.50
2023-04-23T03:55:28.218Z,98115.53
2023-04-23T03:57:55.223Z,98117.16
2023-04-23T04:00:21.948Z,98122.59
2023-04-23T04:02:48.697Z,98124.50
2023-04-23T04:05:16.396Z,98119.19
2023-04-23T04:07:43.289Z,98114.25
2023-04-23T04:10:10.215Z,98111.13
2023-04-23T04:12:36.869Z,98121.00
2023-04-23T04:15:05.002Z,98128.31
2023-04-23T04:17:31.676Z,98125.81
2023-04-23T04:19:58.416Z,98131.97
2023-04-23T04:22:25.053Z,98135.94
2023-04-23T04:24:52.777Z,98129.03
2023-04-23T04:27:19.517Z,98134.00
2023-04-23T04:29:46.213Z,98134.34
2023-04-23T04:32:13.799Z,98132.59
2023-04-23T04:34:40.950Z,98137.91
2023-04-23T04:37:07.846Z,98143.84
2023-04-23T04:39:34.524Z,98152.44
2023-04-23T04:42:03.001Z,98162.50
2023-04-23T04:44:30.724Z,98161.22
2023-04-23T04:46:57.618Z,98174.69
2023-04-23T04:49:24.498Z,98186.91
2023-04-23T04:51:51.413Z,98181.59
2023-04-23T04:54:18.236Z,98190.03
2023-04-23T04:56:44.927Z,98187.84
2023-04-23T04:59:11.550Z,98191.84
2023-04-23T05:01:38.444Z,98181.59
2023-04-23T05:04:05.376Z,98189.19
2023-04-23T05:06:33.146Z,98187.66
2023-04-23T05:08:59.855Z,98191.47
2023-04-23T05:11:26.632Z,98187.44
2023-04-23T05:13:53.384Z,98192.53
2023-04-23T05:16:20.101Z,98186.28
2023-04-23T05:18:46.849Z,98192.66
2023-04-23T05:21:15.867Z,98197.66
2023-04-23T05:23:42.481Z,98194.22
2023-04-23T05:26:09.188Z,98195.75
2023-04-23T05:28:36.639Z,98200.06
2023-04-23T05:31:03.448Z,98202.38
2023-04-23T05:33:33.440Z,98207.47
2023-04-23T05:36:06.317Z,98207.53
2023-04-23T05:38:33.341Z,98210.94
2023-04-23T05:41:00.395Z,98212.94
2023-04-23T05:43:27.095Z,98221.56
2023-04-23T05:45:53.751Z,98225.03
2023-04-23T05:48:20.609Z,98223.91
2023-04-23T05:50:49.350Z,98229.06
2023-04-23T05:53:16.014Z,98221.78
2023-04-23T05:55:42.647Z,98222.94
2023-04-23T05:58:09.362Z,98222.47
2023-04-23T06:00:37.078Z,98224.06
2023-04-23T06:03:03.993Z,98224.81
2023-04-23T06:05:30.856Z,98221.84
2023-04-23T06:07:58.221Z,98235.34
2023-04-23T06:10:25.121Z,98235.13
2023-04-23T06:12:54.102Z,98236.03
2023-04-23T06:15:20.973Z,98229.13
2023-04-23T06:17:47.665Z,98233.69
2023-04-23T06:20:14.418Z,98230.44
2023-04-23T06:22:41.061Z,98238.31
2023-04-23T06:25:08.320Z,98245.38
2023-04-23T06:27:34.987Z,98243.56
2023-04-23T06:30:01.672Z,98252.38
2023-04-23T06:32:28.258Z,98240.22
2023-04-23T06:35:01.643Z,98244.63
2023-04-23T06:37:30.860Z,98243.25
2023-04-23T06:39:59.042Z,98237.34
2023-04-23T06:42:25.768Z,98239.63
2023-04-23T06:44:52.461Z,98241.97
2023-04-23T06:47:19.969Z,98242.25
2023-04-23T06:49:46.692Z,98236.03
2023-04-23T06:52:13.420Z,98236.06
2023-04-23T06:54:40.314Z,98234.78
2023-04-23T06:57:07.295Z,98224.00
2023-04-23T06:59:34.041Z,98222.38
2023-04-23T07:02:01.050Z,98218.19
2023-04-23T07:04:28.056Z,98225.63
2023-04-23T07:06:55.261Z,98225.63
2023-04-23T07:09:23.335Z,98220.19
2023-04-23T07:11:51.089Z,98226.34
2023-04-23T07:14:17.739Z,98223.59
2023-04-23T07:16:44.424Z,98221.59
2023-04-23T07:19:11.407Z,98220.06
2023-04-23T07:21:38.082Z,98221.22
2023-04-23T07:24:07.325Z,98214.16
2023-04-23T07:26:34.435Z,98213.66
2023-04-23T07:29:01.460Z,98225.66
2023-04-23T07:31:28.639Z,98221.38
2023-04-23T07:33:56.329Z,98221.72
2023-04-23T07:36:23.224Z,98224.38
2023-04-23T07:38:51.192Z,98219.72
2023-04-23T07:41:18.461Z,98216.38
2023-04-23T07:43:45.370Z,98219.78
2023-04-23T07:46:12.557Z,98218.81
2023-04-23T07:48:39.351Z,98217.84
2023-04-23T07:51:06.789Z,98222.97
2023-04-23T07:53:33.662Z,98223.44
2023-04-23T07:56:00.610Z,98226.03
2023-04-23T07:58:27.688Z,98211.63
2023-04-23T08:00:54.440Z,98224.41
2023-04-23T08:03:21.711Z,98218.47
2023-04-23T08:05:48.501Z,98219.44
2023-04-23T08:08:15.158Z,98222.19
2023-04-23T08:10:41.951Z,98218.09
2023-04-23T08:13:08.701Z,98216.47
2023-04-23T08:15:35.341Z,98209.53
2023-04-23T08:18:03.275Z,98209.19
2023-04-23T08:20:30.003Z,98206.53
2023-04-23T08:22:56.839Z,98195.81
2023-04-23T08:25:23.682Z,98196.03
2023-04-23T08:27:50.312Z,98193.47
2023-04-23T08:30:17.029Z,98203.16
2023-04-23T08:32:43.697Z,98198.47
2023-04-23T08:35:10.591Z,98198.41
2023-04-23T08:37:39.105Z,98201.31
2023-04-23T08:40:07.649Z,98206.13
2023-04-23T08:42:45.247Z,98202.44
2023-04-23T08:45:13.339Z,98210.28
2023-04-23T08:47:44.726Z,98203.38
2023-04-23T08:50:13.573Z,98210.38
2023-04-23T08:52:48.099Z,98191.91
2023-04-23T08:55:16.485Z,98185.53
2023-04-23T08:57:43.140Z,98191.28
2023-04-23T09:00:13.036Z,98193.31
2023-04-23T09:02:45.735Z,98186.66
2023-04-23T09:05:13.513Z,98180.63
2023-04-23T09:07:40.956Z,98173.31
2023-04-23T09:10:09.230Z,98171.94
2023-04-23T09:12:36.507Z,98174.38
2023-04-23T09:15:11.245Z,98181.28
2023-04-23T09:17:46.378Z,98175.19
2023-04-23T09:20:14.966Z,98171.50
2023-04-23T09:22:47.094Z,98168.25
2023-04-23T09:25:17.748Z,98163.69
2023-04-23T09:27:45.278Z,98160.31
2023-04-23T09:30:12.602Z,98164.75
2023-04-23T09:32:42.265Z,98165.72
2023-04-23T09:35:11.048Z,98166.44
2023-04-23T09:37:42.126Z,98163.00
2023-04-23T09:40:14.236Z,98172.03
2023-04-23T09:42:41.095Z,98166.06
2023-04-23T09:45:11.451Z,98173.06
2023-04-23T09:47:48.170Z,98166.06
2023-04-23T09:50:15.770Z,98163.53
2023-04-23T09:52:42.732Z,98152.63
2023-04-23T09:55:09.677Z,98152.88
2023-04-23T09:57:38.412Z,98155.03
2023-04-23T10:00:17.382Z,98150.78
2023-04-23T10:02:49.316Z,98157.13
2023-04-23T10:05:25.013Z,98151.66
2023-04-23T10:07:56.872Z,98145.16
2023-04-23T10:10:24.031Z,98143.97
2023-04-23T10:12:56.903Z,98140.09
2023-04-23T10:15:26.631Z,98134.47
2023-04-23T10:17:54.483Z,98144.44
2023-04-23T10:20:23.264Z,98128.69
2023-04-23T10:22:50.209Z,98136.94
2023-04-23T10:25:19.701Z,98130.22
2023-04-23T10:27:52.641Z,98122.19
2023-04-23T10:30:20.973Z,98131.88
2023-04-23T10:32:49.839Z,98130.78
2023-04-23T10:35:16.658Z,98125.78
2023-04-23T10:37:46.521Z,98129.41
2023-04-23T10:40:15.256Z,98127.63
2023-04-23T10:42:44.441Z,98131.81
2023-04-23T10:47:49.114Z,98126.91
2023-04-23T10:50:22.523Z,98125.31
2023-04-23T10:52:53.571Z,98124.56
2023-04-23T10:55:23.104Z,98108.63
2023-04-23T10:58:05.487Z,98107.44
2023-04-23T11:00:58.217Z,98101.97
2023-04-23T11:03:39.765Z,98100.47
2023-04-23T11:06:12.496Z,98093.59
2023-04-23T11:08:52.767Z,98091.31
2023-04-23T11:11:24.849Z,98079.75
2023-04-23T11:13:54.901Z,98093.16
2023-04-23T11:16:23.693Z,98081.78
2023-04-23T11:19:05.193Z,98080.06
2023-04-23T11:22:03.151Z,98075.91
2023-04-23T11:24:33.388Z,98079.78
2023-04-23T11:27:00.458Z,98078.53
2023-04-23T11:29:28.561Z,98068.00
2023-04-23T11:34:26.260Z,98061.16
2023-04-23T11:36:57.609Z,98062.97
2023-04-23T11:39:24.727Z,98060.31
2023-04-23T11:41:52.845Z,98056.94
2023-04-23T11:44:21.331Z,98050.91
2023-04-23T11:46:49.598Z,98049.72
2023-04-23T11:49:18.823Z,98044.53
2023-04-23T11:51:46.562Z,98047.91
2023-04-23T11:54:14.667Z,98039.44
2023-04-23T11:56:41.859Z,98043.72
2023-04-23T11:59:09.037Z,98045.94
2023-04-23T12:01:46.383Z,98041.00
2023-04-23T12:04:19.049Z,98036.00
2023-04-23T12:06:47.256Z,98037.38
2023-04-23T12:09:15.069Z,98027.69
2023-04-23T12:11:43.389Z,98026.06
2023-04-23T12:14:11.437Z,98020.88
2023-04-23T12:16:43.580Z,98013.22
2023-04-23T12:19:15.976Z,98008.47
2023-04-23T12:21:55.883Z,98006.59
2023-04-23T12:24:52.304Z,98004.94
2023-04-23T12:27:22.090Z,98004.72
2023-04-23T12:29:50.864Z,98000.19
2023-04-23T12:32:19.367Z,98013.22
2023-04-23T12:34:55.393Z,98014.69
2023-04-23T12:37:26.906Z,98006.41
2023-04-23T12:39:56.406Z,97999.75
2023-04-23T12:42:22.977Z,98004.13
2023-04-23T12:44:51.703Z,98004.13
2023-04-23T12:47:21.438Z,98001.66
2023-04-23T12:49:53.298Z,98000.19
2023-04-23T12:52:20.479Z,98007.22
2023-04-23T12:54:47.087Z,98006.00
2023-04-23T12:57:18.278Z,97995.66
2023-04-23T12:59:46.430Z,97984.47
2023-04-23T13:02:13.404Z,97979.72
2023-04-23T13:04:40.076Z,97981.94
2023-04-23T13:07:06.879Z,97978.22
2023-04-23T13:09:36.046Z,97965.44
2023-04-23T13:12:02.647Z,97968.69
2023-04-23T13:14:29.255Z,97962.34
2023-04-23T13:16:57.988Z,97957.56
2023-04-23T13:19:25.219Z,97956.81
2023-04-23T13:21:51.885Z,97955.97
2023-04-23T13:24:18.492Z,97954.72
2023-04-23T13:26:45.143Z,97943.53
2023-04-23T13:29:11.955Z,97941.13
2023-04-23T13:31:38.642Z,97933.00
2023-04-23T13:34:05.417Z,97927.84
2023-04-23T13:36:32.075Z,97925.38
2023-04-23T13:38:58.741Z,97917.50
2023-04-23T13:41:25.464Z,97917.53
2023-04-23T13:43:52.807Z,97910.88
2023-04-23T13:46:19.785Z,97904.69
2023-04-23T13:48:46.692Z,97897.25
2023-04-23T13:51:32.627Z,97898.25
2023-04-23T13:53:59.947Z,97892.31
2023-04-23T13:56:30.687Z,97885.19
2023-04-23T13:59:18.066Z,97883.09
2023-04-23T14:01:47.211Z,97881.50
2023-04-23T14:04:14.071Z,97877.09
2023-04-23T14:06:40.704Z,97877.72
2023-04-23T14:09:07.331Z,97868.84
2023-04-23T14:11:34.083Z,97870.56
2023-04-23T14:14:01.286Z,97865.47
2023-04-23T14:16:27.895Z,97858.00
2023-04-23T14:18:54.616Z,97857.94
2023-04-23T14:21:22.445Z,97856.94
2023-04-23T14:24:22.258Z,97861.69
2023-04-23T14:26:50.149Z,97860.22
2023-04-23T14:29:25.396Z,97853.34
2023-04-23T14:31:52.534Z,97857.56
2023-04-23T14:34:19.138Z,97849.09
2023-04-23T14:36:49.186Z,97848.13
2023-04-23T14:39:16.123Z,97845.56
2023-04-23T14:41:42.744Z,97836.94
2023-04-23T14:44:09.409Z,97844.81
2023-04-23T14:46:36.203Z,97837.78
2023-04-23T14:49:02.907Z,97836.34
2023-04-23T14:51:29.750Z,97843.16
2023-04-23T14:53:56.949Z,97836.53
2023-04-23T14:56:23.925Z,97830.13
2023-04-23T14:58:50.599Z,97818.44
2023-04-23T15:01:17.372Z,97826.03
2023-04-23T15:03:45.329Z,97817.03
2023-04-23T15:06:12.235Z,97798.50
2023-04-23T15:08:38.827Z,97805.59
2023-04-23T15:11:13.030Z,97796.28
2023-04-23T15:14:01.358Z,97802.16
2023-04-23T15:16:47.647Z,97796.91
2023-04-23T15:19:17.934Z,97810.19
2023-04-23T15:21:45.249Z,97792.75
2023-04-23T15:24:11.884Z,97787.47
2023-04-23T15:26:39.116Z,97788.53
2023-04-23T15:29:09.082Z,97787.09
2023-04-23T15:31:36.974Z,97786.25
2023-04-23T15:34:06.254Z,97782.44
2023-04-23T15:36:34.875Z,97794.34
2023-04-23T15:39:01.601Z,97792.03
2023-04-23T15:41:28.768Z,97778.03
2023-04-23T15:43:55.627Z,97789.69
2023-04-23T15:46:22.203Z,97783.81
2023-04-23T15:48:48.847Z,97789.94
2023-04-23T15:51:16.176Z,97776.91
2023-04-23T15:53:42.830Z,97773.63
2023-04-23T15:56:09.446Z,97780.72
2023-04-23T15:58:36.089Z,97775.78
2023-04-23T16:01:03.183Z,97779.34
2023-04-23T16:03:30.048Z,97772.53
2023-04-23T16:05:56.926Z,97764.88
2023-04-23T16:08:23.542Z,97767.44
2023-04-23T16:10:50.162Z,97760.56
2023-04-23T16:13:16.807Z,97761.34
2023-04-23T16:15:43.535Z,97758.84
2023-04-23T16:18:10.276Z,97760.28
2023-04-23T16:20:36.926Z,97747.56
2023-04-23T16:23:03.675Z,97749.81
2023-04-23T16:25:30.717Z,97744.47
2023-04-23T16:27:57.393Z,97740.94
2023-04-23T16:30:24.688Z,97734.16
2023-04-23T16:32:51.553Z,97737.25
2023-04-23T16:35:18.417Z,97735.56
2023-04-23T16:37:45.037Z,97729.59
2023-04-23T16:40:12.096Z,97726.53
2023-04-23T16:42:39.204Z,97710.63
2023-04-23T16:45:06.164Z,97713.06
2023-04-23T16:47:33.371Z,97715.16
2023-04-23T16:50:00.500Z,97719.44
2023-04-23T16:52:27.197Z,97724.16
2023-04-23T16:54:53.913Z,97715.50
2023-04-23T16:57:20.815Z,97714.25
2023-04-23T16:59:47.516Z,97708.88
2023-04-23T17:02:14.218Z,97712.97
2023-04-23T17:04:41.070Z,97702.47
2023-04-23T17:07:08.067Z,97698.56
2023-04-23T17:09:34.988Z,97706.16
2023-04-23T17:12:02.146Z,97706.34
2023-04-23T17:14:28.773Z,97697.88
2023-04-23T17:16:56.255Z,97691.50
2023-04-23T17:19:22.979Z,97692.72
2023-04-23T17:21:49.743Z,97695.19
2023-04-23T17:24:16.401Z,97696.03
2023-04-23T17:26:43.665Z,97690.00
2023-04-23T17:29:10.960Z,97679.09
2023-04-23T17:31:38.420Z,97682.78
2023-04-23T17:34:05.524Z,97676.41
2023-04-23T17:36:32.288Z,97678.25
2023-04-23T17:38:59.016Z,97679.41
2023-04-23T17:41:25.838Z,97660.47
2023-04-23T17:43:52.494Z,97679.38
2023-04-23T17:46:19.375Z,97683.03
2023-04-23T17:48:46.354Z,97674.78
2023-04-23T17:51:13.066Z,97676.81
2023-04-23T17:53:39.911Z,97674.09
2023-04-23T17:56:06.508Z,97673.09
2023-04-23T17:58:33.227Z,97670.34
2023-04-23T18:01:00.314Z,97666.41
2023-04-23T18:03:27.990Z,97673.00
2023-04-23T18:05:54.917Z,97665.16
2023-04-23T18:08:21.647Z,97667.19
2023-04-23T18:10:48.531Z,97664.63
2023-04-23T18:13:15.303Z,97661.53
2023-04-23T18:15:42.446Z,97659.00
2023-04-23T18:18:09.545Z,97667.41
2023-04-23T18:20:38.546Z,97661.97
2023-04-23T18:23:06.602Z,97658.25
2023-04-23T18:25:33.734Z,97660.69
2023-04-23T18:28:00.425Z,97663.50
2023-04-23T18:30:27.271Z,97661.78
2023-04-23T18:33:07.665Z,97661.19
2023-04-23T18:35:34.516Z,97663.63
2023-04-23T18:38:09.595Z,97665.22
2023-04-23T18:40:36.291Z,97658.97
2023-04-23T18:43:02.912Z,97659.56
2023-04-23T18:45:29.568Z,97661.06
2023-04-23T18:48:24.096Z,97665.34
2023-04-23T18:50:51.083Z,97666.44
2023-04-23T18:53:19.091Z,97676.44
2023-04-23T18:55:46.949Z,97679.19
2023-04-23T18:58:13.519Z,97680.59
2023-04-23T19:00:40.724Z,97682.34
2023-04-23T19:03:19.635Z,97684.56
2023-04-23T19:05:52.890Z,97683.47
2023-04-23T19:08:19.493Z,97686.47
2023-04-23T19:10:46.144Z,97683.16
2023-04-23T19:13:12.743Z,97686.00
2023-04-23T19:15:39.501Z,97690.72
2023-04-23T19:18:06.353Z,97688.59
2023-04-23T19:20:33.018Z,97679.97
2023-04-23T19:22:59.602Z,97680.13
2023-04-23T19:25:26.303Z,97678.47
2023-04-23T19:27:52.916Z,97673.53
2023-04-23T19:30:19.544Z,97677.19
2023-04-23T19:32:46.155Z,97674.72
2023-04-23T19:35:13.646Z,97680.41
2023-04-23T19:37:40.229Z,97677.09
2023-04-23T19:40:07.651Z,97676.09
2023-04-23T19:42:34.324Z,97673.44
2023-04-23T19:45:01.070Z,97668.47
2023-04-23T19:47:27.822Z,97679.31
2023-04-23T19:49:54.733Z,97671.69
2023-04-23T19:52:24.023Z,97690.06
2023-04-23T19:54:50.670Z,97722.94
2023-04-23T19:57:19.300Z,97728.03
2023-04-23T19:59:46.477Z,97729.09
2023-04-23T20:02:13.584Z,97728.38
2023-04-23T20:04:41.362Z,97732.13
2023-04-23T20:07:08.333Z,97733.84
2023-04-23T20:09:35.627Z,97729.53
2023-04-23T20:12:02.946Z,97726.59
2023-04-23T20:14:29.982Z,97724.94
2023-04-23T20:16:57.682Z,97708.28
2023-04-23T20:19:27.110Z,97712.31
2023-04-23T20:21:54.047Z,97696.69
2023-04-23T20:24:23.433Z,97691.66
2023-04-23T20:26:50.012Z,97706.22
2023-04-23T20:29:16.827Z,97721.47
2023-04-23T20:31:43.661Z,97727.66
2023-04-23T20:34:11.052Z,97737.25
2023-04-23T20:36:39.021Z,97741.50
2023-04-23T20:39:05.738Z,97736.78
2023-04-23T20:41:36.568Z,97741.72
2023-04-23T20:44:05.283Z,97735.66
2023-04-23T20:46:32.746Z,97737.97
2023-04-23T20:49:00.950Z,97736.53
2023-04-23T20:51:33.246Z,97728.81
2023-04-23T20:54:00.169Z,97721.66
2023-04-23T20:56:27.164Z,97720.00
2023-04-23T20:58:53.771Z,97728.38
2023-04-23T21:01:20.554Z,97719.25
2023-04-23T21:03:47.294Z,97720.13
2023-04-23T21:06:14.101Z,97724.63
2023-04-23T21:08:42.730Z,97729.44
2023-04-23T21:11:13.708Z,97741.72
2023-04-23T21:13:40.833Z,97745.25
2023-04-23T21:16:07.558Z,97742.25
2023-04-23T21:18:34.501Z,97740.13
2023-04-23T21:21:01.248Z,97733.31
2023-04-23T21:23:27.892Z,97745.06
2023-04-23T21:25:54.686Z,97740.59
2023-04-23T21:28:21.464Z,97737.31
2023-04-23T21:30:50.913Z,97732.63
2023-04-23T21:33:21.857Z,97731.03
2023-04-23T21:35:50.782Z,97730.03
2023-04-23T21:38:18.445Z,97731.50
2023-04-23T21:40:45.283Z,97728.38
2023-04-23T21:43:12.346Z,97728.53
2023-04-23T21:45:39.258Z,97711.88
2023-04-23T21:48:06.166Z,97700.41
2023-04-23T21:50:33.564Z,97710.91
2023-04-23T21:53:00.606Z,97707.78
2023-04-23T21:55:28.580Z,97702.00
2023-04-23T21:58:03.137Z,97712.31
2023-04-23T22:00:33.270Z,97718.63
2023-04-23T22:03:00.193Z,97715.28
2023-04-23T22:05:28.470Z,97716.44
2023-04-23T22:07:56.952Z,97717.31
2023-04-23T22:10:23.937Z,97699.19
2023-04-23T22:12:50.907Z,97707.34
2023-04-23T22:15:19.232Z,97705.19
2023-04-23T22:17:50.424Z,97704.84
2023-04-23T22:20:19.150Z,97709.66
2023-04-23T22:22:46.014Z,97706.84
2023-04-23T22:25:13.108Z,97700.88
2023-04-23T22:27:41.274Z,97707.19
2023-04-23T22:30:09.919Z,97691.91
2023-04-23T22:32:38.022Z,97700.72
2023-04-23T22:35:06.356Z,97693.22
2023-04-23T22:37:33.586Z,97692.56
2023-04-23T22:40:00.899Z,97697.56
2023-04-23T22:42:27.519Z,97697.44
2023-04-23T22:44:54.143Z,97691.28
2023-04-23T22:47:21.161Z,97697.91
2023-04-23T22:49:47.962Z,97700.56
2023-04-23T22:52:15.677Z,97692.59
2023-04-23T22:54:43.328Z,97691.59
2023-04-23T22:57:10.529Z,97687.44
2023-04-23T22:59:40.992Z,97690.78
2023-04-23T23:02:07.863Z,97691.59
2023-04-23T23:04:37.792Z,97684.97
2023-04-23T23:07:05.967Z,97690.94
2023-04-23T23:09:32.920Z,97683.63
2023-04-23T23:12:03.918Z,97690.59
2023-04-23T23:14:31.835Z,97687.78
2023-04-23T23:16:58.980Z,97695.75
2023-04-23T23:19:29.086Z,97703.72
2023-04-23T23:21:55.733Z,97702.88
2023-04-23T23:24:22.931Z,97709.53
2023-04-23T23:26:50.424Z,97702.88
2023-04-23T23:29:17.142Z,97693.78
2023-04-23T23:31:44.229Z,97680.50
2023-04-23T23:34:11.413Z,97686.63
2023-04-23T23:36:38.045Z,97683.31
2023-04-23T23:39:04.728Z,97684.97
2023-04-23T23:41:31.344Z,97686.13
2023-04-23T23:43:57.948Z,97683.31
2023-04-23T23:46:25.492Z,97686.97
2023-04-23T23:48:52.250Z,97689.78
2023-04-23T23:51:19.085Z,97682.63
2023-04-23T23:53:45.867Z,97691.44
2023-04-23T23:56:12.511Z,97692.28
2023-04-23T23:58:39.249Z,97703.88
